Time;durP1;ratioP1;P1;durP2;ratioP2;P2;SDS_P1;SDS_P2;PMS_P1;PMS_P2;Temp;Humidity;BMP_temperature;BMP_pressure;BME280_temperature;BME280_humidity;BME280_pressure;Samples;Min_cycle;Max_cycle;Signal;HPM_P1;HPM_P2
2023/05/05 00:01:26;;;;;;;8.32;2.00;;;11.50;99.90;;;;;;5067621;28;20414;-52
2023/05/05 00:03:51;;;;;;;8.93;2.38;;;11.50;99.90;;;;;;5054153;28;20021;-48
2023/05/05 00:06:17;;;;;;;7.60;2.45;;;11.50;99.90;;;;;;5058253;28;20036;-48
2023/05/05 00:08:43;;;;;;;10.00;2.30;;;11.40;99.90;;;;;;5058758;28;20518;-45
2023/05/05 00:11:08;;;;;;;8.23;2.10;;;11.40;99.90;;;;;;5062484;28;20033;-49
2023/05/05 00:13:34;;;;;;;8.98;2.60;;;11.40;99.90;;;;;;5070752;28;20034;-46
2023/05/05 00:16:00;;;;;;;10.48;2.78;;;11.40;99.90;;;;;;5071011;28;20494;-45
2023/05/05 00:18:27;;;;;;;9.32;2.75;;;11.40;99.90;;;;;;5072527;28;20020;-49
2023/05/05 00:20:52;;;;;;;8.45;2.20;;;11.30;99.90;;;;;;5052828;28;20036;-45
2023/05/05 00:23:19;;;;;;;11.18;2.30;;;11.40;99.90;;;;;;5069677;28;20032;-44
2023/05/05 00:25:45;;;;;;;14.85;2.88;;;11.40;99.90;;;;;;5054751;28;20037;-46
2023/05/05 00:28:12;;;;;;;14.75;2.53;;;11.30;99.90;;;;;;5054652;28;20081;-45
2023/05/05 00:30:39;;;;;;;5.63;2.22;;;11.30;99.90;;;;;;5065569;28;20071;-45
2023/05/05 00:33:05;;;;;;;8.38;2.08;;;11.30;99.90;;;;;;5099414;28;20032;-45
2023/05/05 00:35:31;;;;;;;6.22;1.80;;;11.30;99.90;;;;;;5057055;28;20021;-44
2023/05/05 00:37:57;;;;;;;6.18;2.00;;;11.30;99.90;;;;;;5065605;28;20078;-45
2023/05/05 00:40:24;;;;;;;11.32;3.03;;;11.20;99.90;;;;;;5056085;28;20056;-48
2023/05/05 00:42:49;;;;;;;8.63;2.53;;;11.20;99.90;;;;;;5066166;28;20044;-51
2023/05/05 00:45:16;;;;;;;6.43;2.38;;;11.20;99.90;;;;;;5064161;28;20038;-46
2023/05/05 00:47:46;;;;;;;8.30;2.40;;;11.20;99.90;;;;;;5058156;28;20029;-46
2023/05/05 00:50:26;;;;;;;10.10;2.45;;;11.20;99.90;;;;;;5053197;28;20096;-49
2023/05/05 00:52:53;;;;;;;;;;;11.20;99.90;;;;;;5069127;28;20098;-49
2023/05/05 00:55:19;;;;;;;5.13;2.17;;;11.20;99.90;;;;;;5061461;28;20063;-46
2023/05/05 00:57:45;;;;;;;8.77;2.88;;;11.10;99.90;;;;;;5059145;28;20085;-48
2023/05/05 01:00:11;;;;;;;8.63;2.30;;;11.10;99.90;;;;;;5068289;28;20032;-46
2023/05/05 01:02:38;;;;;;;10.10;2.38;;;11.10;99.90;;;;;;5067129;28;20063;-52
2023/05/05 01:05:05;;;;;;;12.05;2.67;;;11.00;99.90;;;;;;5066975;28;20028;-52
2023/05/05 01:07:59;;;;;;;4.85;1.88;;;11.00;99.90;;;;;;5064651;28;20040;-52
2023/05/05 01:10:29;;;;;;;4.78;2.00;;;10.90;99.90;;;;;;5052033;28;20032;-53
2023/05/05 01:13:25;;;;;;;11.10;2.40;;;10.90;99.90;;;;;;5056645;28;20111;-49
2023/05/05 01:15:58;;;;;;;7.40;2.28;;;10.90;99.90;;;;;;5055077;28;20025;-48
2023/05/05 01:18:35;;;;;;;6.25;2.25;;;10.80;99.90;;;;;;5049507;28;20024;-46
2023/05/05 01:21:14;;;;;;;6.82;2.15;;;10.80;99.90;;;;;;5053780;28;20037;-46
2023/05/05 01:24:01;;;;;;;8.27;2.30;;;10.70;99.90;;;;;;5059312;28;20183;-45
2023/05/05 01:26:46;;;;;;;8.75;2.65;;;10.70;99.90;;;;;;5063680;28;20548;-47
2023/05/05 01:29:29;;;;;;;8.63;2.45;;;10.70;99.90;;;;;;5065979;28;20479;-48
2023/05/05 01:32:05;;;;;;;8.05;2.88;;;10.70;99.90;;;;;;5067079;28;20044;-46
2023/05/05 01:34:52;;;;;;;7.85;3.00;;;10.60;99.90;;;;;;5071425;28;20027;-46
2023/05/05 01:37:23;;;;;;;11.43;3.53;;;10.70;99.90;;;;;;5052128;28;20032;-48
2023/05/05 01:39:54;;;;;;;10.02;3.20;;;10.70;99.90;;;;;;5059149;28;20032;-51
2023/05/05 01:42:21;;;;;;;11.55;3.28;;;10.70;99.90;;;;;;5060225;28;20041;-49
2023/05/05 01:44:48;;;;;;;17.33;4.38;;;10.70;99.90;;;;;;5064918;28;20054;-46
2023/05/05 01:47:16;;;;;;;12.32;3.55;;;10.70;99.90;;;;;;5061807;28;20033;-49
2023/05/05 01:49:46;;;;;;;10.23;3.28;;;10.70;99.90;;;;;;5055486;28;20033;-46
2023/05/05 01:52:16;;;;;;;12.40;3.55;;;10.70;99.90;;;;;;5058888;28;20045;-45
2023/05/05 01:54:44;;;;;;;11.65;3.67;;;10.70;99.90;;;;;;5062411;28;20476;-48
2023/05/05 01:57:10;;;;;;;12.65;3.65;;;10.70;99.90;;;;;;5051253;28;20033;-45
2023/05/05 01:59:38;;;;;;;10.15;3.00;;;10.70;99.90;;;;;;5054449;28;20024;-45
2023/05/05 02:02:07;;;;;;;7.93;3.17;;;10.70;99.90;;;;;;5057945;28;20033;-46
2023/05/05 02:04:35;;;;;;;16.85;4.57;;;10.70;99.90;;;;;;5054155;28;20040;-45
2023/05/05 02:07:03;;;;;;;15.18;3.47;;;10.70;99.90;;;;;;5050684;28;20040;-46
2023/05/05 02:09:29;;;;;;;7.55;3.22;;;10.70;99.90;;;;;;5065336;28;20070;-45
2023/05/05 02:11:57;;;;;;;15.50;3.40;;;10.80;99.90;;;;;;5059185;28;20528;-45
2023/05/05 02:14:26;;;;;;;12.95;3.67;;;10.80;99.90;;;;;;5065139;28;20460;-48
2023/05/05 02:16:54;;;;;;;11.20;3.67;;;10.80;99.90;;;;;;5055116;28;20017;-51
2023/05/05 02:19:25;;;;;;;14.32;4.03;;;10.80;99.90;;;;;;5054005;28;20112;-45
2023/05/05 02:21:51;;;;;;;16.42;4.43;;;10.90;99.90;;;;;;5059127;28;20472;-46
2023/05/05 02:24:17;;;;;;;17.55;4.65;;;10.90;99.90;;;;;;5050828;28;20042;-45
2023/05/05 02:26:46;;;;;;;14.38;4.57;;;10.90;99.90;;;;;;5060334;28;20044;-49
2023/05/05 02:29:17;;;;;;;13.85;4.40;;;11.00;99.90;;;;;;5063632;28;20028;-45
2023/05/05 02:31:49;;;;;;;16.35;4.60;;;11.10;99.90;;;;;;5070437;28;20115;-50
2023/05/05 02:34:22;;;;;;;16.90;4.45;;;11.10;99.90;;;;;;5065080;28;20020;-46
2023/05/05 02:36:52;;;;;;;12.77;3.83;;;11.20;99.90;;;;;;5069035;28;20029;-49
2023/05/05 02:39:30;;;;;;;19.50;4.32;;;11.20;99.90;;;;;;5056807;28;20025;-57
2023/05/05 02:42:00;;;;;;;14.27;4.90;;;11.30;99.90;;;;;;5062784;28;20039;-44
2023/05/05 02:44:30;;;;;;;19.48;4.93;;;11.30;99.90;;;;;;5054503;28;20143;-49
2023/05/05 02:46:57;;;;;;;14.38;4.25;;;11.40;99.90;;;;;;5067019;28;20522;-47
2023/05/05 02:49:23;;;;;;;19.15;4.50;;;11.50;99.90;;;;;;5069389;28;20032;-47
2023/05/05 02:51:50;;;;;;;14.65;4.53;;;11.50;99.90;;;;;;5070270;28;20051;-48
2023/05/05 02:54:16;;;;;;;16.27;4.90;;;11.50;99.90;;;;;;5059732;28;20479;-48
2023/05/05 02:56:47;;;;;;;12.48;4.68;;;11.50;99.90;;;;;;5058769;28;20029;-54
2023/05/05 02:59:25;;;;;;;13.32;5.00;;;11.60;99.90;;;;;;5058891;28;20032;-51
2023/05/05 03:01:55;;;;;;;9.98;4.60;;;11.60;99.90;;;;;;5062697;28;20036;-46
2023/05/05 03:04:21;;;;;;;12.88;5.28;;;11.60;99.90;;;;;;5066074;28;20024;-47
2023/05/05 03:06:50;;;;;;;12.82;4.65;;;11.60;99.90;;;;;;5068070;28;20044;-47
2023/05/05 03:09:46;;;;;;;19.92;5.05;;;11.70;99.90;;;;;;5073937;28;20025;-45
2023/05/05 03:12:18;;;;;;;14.10;5.28;;;11.70;99.90;;;;;;5073221;28;20028;-45
2023/05/05 03:14:45;;;;;;;16.15;5.22;;;11.70;99.90;;;;;;5063588;28;20024;-45
2023/05/05 03:17:13;;;;;;;17.63;5.70;;;11.70;99.90;;;;;;5068995;28;20025;-45
2023/05/05 03:19:43;;;;;;;17.55;5.85;;;11.70;99.90;;;;;;5058284;28;20021;-44
2023/05/05 03:22:09;;;;;;;16.13;5.65;;;11.70;99.90;;;;;;5067929;28;20021;-54
2023/05/05 03:24:35;;;;;;;12.77;6.00;;;11.70;99.90;;;;;;5075773;28;20662;-49
2023/05/05 03:27:01;;;;;;;15.00;5.57;;;11.70;99.90;;;;;;5068087;28;20418;-53
2023/05/05 03:29:28;;;;;;;15.93;6.38;;;11.70;99.90;;;;;;5056570;28;20032;-49
2023/05/05 03:31:59;;;;;;;13.55;7.18;;;11.60;99.90;;;;;;5056800;28;20476;-50
2023/05/05 03:34:25;;;;;;;12.45;6.53;;;11.60;99.90;;;;;;5070558;28;20021;-45
2023/05/05 03:36:51;;;;;;;16.23;6.97;;;11.60;99.90;;;;;;5076853;28;20059;-46
2023/05/05 03:39:17;;;;;;;19.58;6.95;;;11.60;99.90;;;;;;5076704;28;20053;-48
2023/05/05 03:41:43;;;;;;;19.40;7.45;;;11.60;99.90;;;;;;5076531;28;20020;-46
2023/05/05 03:44:09;;;;;;;17.48;7.40;;;11.60;99.90;;;;;;5067010;28;20126;-45
2023/05/05 03:46:35;;;;;;;17.42;7.43;;;11.50;99.90;;;;;;5056420;28;20047;-45
2023/05/05 03:49:01;;;;;;;17.80;8.07;;;11.50;99.90;;;;;;5064054;28;20029;-45
2023/05/05 03:51:26;;;;;;;18.60;8.35;;;11.50;99.90;;;;;;5075287;28;20483;-50
2023/05/05 03:53:52;;;;;;;20.40;8.82;;;11.50;99.90;;;;;;5076436;28;20487;-45
2023/05/05 03:56:18;;;;;;;18.30;8.07;;;11.50;99.90;;;;;;5076513;28;20506;-43
2023/05/05 03:58:44;;;;;;;19.67;8.20;;;11.50;99.90;;;;;;5074974;28;20020;-49
2023/05/05 04:01:10;;;;;;;18.13;8.40;;;11.50;99.90;;;;;;5072343;28;20024;-46
2023/05/05 04:03:36;;;;;;;16.80;7.57;;;11.50;99.90;;;;;;5073227;28;20025;-45
2023/05/05 04:06:01;;;;;;;15.63;7.70;;;11.50;99.90;;;;;;5073210;28;20034;-55
2023/05/05 04:08:27;;;;;;;16.17;7.03;;;11.50;99.90;;;;;;5073430;28;20028;-45
2023/05/05 04:10:53;;;;;;;15.98;7.82;;;11.50;99.90;;;;;;5073085;28;20471;-45
2023/05/05 04:13:19;;;;;;;16.27;7.88;;;11.50;99.90;;;;;;5073197;28;20032;-52
2023/05/05 04:15:45;;;;;;;20.02;8.05;;;11.50;99.90;;;;;;5072697;28;20024;-46
2023/05/05 04:18:11;;;;;;;20.35;8.00;;;11.60;99.90;;;;;;5064714;28;20027;-51
2023/05/05 04:20:36;;;;;;;23.98;8.60;;;11.60;99.90;;;;;;5052877;28;20032;-47
2023/05/05 04:23:02;;;;;;;26.23;8.27;;;11.60;99.90;;;;;;5066174;28;20017;-44
2023/05/05 04:25:28;;;;;;;21.20;8.73;;;11.60;99.90;;;;;;5072863;28;20033;-49
2023/05/05 04:27:54;;;;;;;23.35;9.55;;;11.60;99.90;;;;;;5072720;28;20518;-46
2023/05/05 04:30:19;;;;;;;21.88;9.38;;;11.60;99.90;;;;;;5072502;28;20035;-53
2023/05/05 04:32:45;;;;;;;19.85;9.43;;;11.70;99.90;;;;;;5072911;28;20028;-52
2023/05/05 04:35:11;;;;;;;18.45;9.45;;;11.70;99.90;;;;;;5072203;28;20522;-44
2023/05/05 04:37:36;;;;;;;17.90;9.25;;;11.80;99.90;;;;;;5072772;28;20449;-43
2023/05/05 04:40:02;;;;;;;21.88;10.60;;;11.80;99.90;;;;;;5072478;28;20016;-45
2023/05/05 04:42:28;;;;;;;25.80;10.93;;;11.80;99.90;;;;;;5071353;28;20036;-46
2023/05/05 04:44:53;;;;;;;21.90;11.38;;;11.80;99.90;;;;;;5067844;28;20017;-43
2023/05/05 04:47:19;;;;;;;20.63;10.38;;;11.80;99.90;;;;;;5052603;28;20037;-43
2023/05/05 04:49:45;;;;;;;19.30;9.65;;;11.90;99.90;;;;;;5052453;28;20415;-44
2023/05/05 04:52:13;;;;;;;20.42;10.43;;;11.90;99.90;;;;;;5054028;28;20458;-46
2023/05/05 04:54:39;;;;;;;20.42;11.07;;;11.90;99.90;;;;;;5052448;28;20116;-44
2023/05/05 04:57:06;;;;;;;22.02;11.55;;;11.90;99.90;;;;;;5052293;28;20101;-44
2023/05/05 04:59:31;;;;;;;20.63;10.05;;;12.00;99.90;;;;;;5083927;28;20028;-45
2023/05/05 05:01:57;;;;;;;22.05;10.93;;;12.00;99.90;;;;;;5052101;28;20017;-44
2023/05/05 05:04:24;;;;;;;20.05;10.50;;;12.00;99.90;;;;;;5052138;28;20537;-48
2023/05/05 05:06:50;;;;;;;22.77;10.48;;;12.00;99.90;;;;;;5083852;28;20112;-49
2023/05/05 05:09:16;;;;;;;16.33;9.00;;;12.10;99.90;;;;;;5052042;28;20013;-45
2023/05/05 05:11:42;;;;;;;16.63;10.23;;;12.10;99.90;;;;;;5050738;28;20029;-48
2023/05/05 05:14:08;;;;;;;25.15;10.15;;;12.10;99.90;;;;;;5050074;28;20019;-44
2023/05/05 05:16:33;;;;;;;17.38;9.27;;;12.10;99.90;;;;;;5061412;28;20383;-46
2023/05/05 05:18:59;;;;;;;15.15;8.98;;;12.20;99.90;;;;;;5056513;28;20341;-46
2023/05/05 05:21:25;;;;;;;15.02;8.57;;;12.20;99.90;;;;;;5051911;28;20025;-46
2023/05/05 05:23:51;;;;;;;17.48;8.90;;;12.30;99.90;;;;;;5071267;28;20111;-45
2023/05/05 05:26:16;;;;;;;14.80;8.23;;;12.30;99.90;;;;;;5071700;28;20502;-45
2023/05/05 05:28:42;;;;;;;15.05;8.05;;;12.20;99.90;;;;;;5071804;28;20062;-48
2023/05/05 05:31:08;;;;;;;13.63;7.78;;;12.20;99.90;;;;;;5071394;28;20099;-52
2023/05/05 05:33:33;;;;;;;16.67;8.35;;;12.20;99.90;;;;;;5071602;28;20039;-51
2023/05/05 05:35:59;;;;;;;13.35;7.38;;;12.30;99.90;;;;;;5071704;28;20074;-45
2023/05/05 05:38:24;;;;;;;18.65;8.35;;;12.30;99.90;;;;;;5071540;28;20020;-46
2023/05/05 05:40:50;;;;;;;14.13;7.18;;;12.30;99.90;;;;;;5071643;28;20028;-45
2023/05/05 05:43:16;;;;;;;16.92;7.60;;;12.30;99.90;;;;;;5071334;28;20127;-45
2023/05/05 05:45:41;;;;;;;13.85;8.07;;;12.50;99.90;;;;;;5071458;28;20032;-49
2023/05/05 05:48:07;;;;;;;13.95;7.43;;;12.60;99.90;;;;;;5070108;28;20021;-46
2023/05/05 05:50:34;;;;;;;12.45;6.28;;;12.90;99.90;;;;;;5071532;28;20021;-47
2023/05/05 05:53:00;;;;;;;12.93;5.70;;;13.10;99.90;;;;;;5071072;28;20021;-50
2023/05/05 05:55:25;;;;;;;14.98;5.85;;;13.20;99.90;;;;;;5071287;28;20030;-46
2023/05/05 05:57:51;;;;;;;13.45;5.55;;;13.40;99.90;;;;;;5071108;28;20028;-45
2023/05/05 06:00:17;;;;;;;15.27;5.60;;;13.40;99.90;;;;;;5070815;28;20017;-44
2023/05/05 06:02:42;;;;;;;11.63;4.60;;;13.50;99.90;;;;;;5071063;28;20039;-53
2023/05/05 06:05:09;;;;;;;12.35;4.70;;;13.40;99.90;;;;;;5070998;28;20073;-51
2023/05/05 06:07:34;;;;;;;13.80;4.38;;;13.40;99.90;;;;;;5071176;28;20093;-55
2023/05/05 06:10:00;;;;;;;10.18;3.90;;;13.30;99.90;;;;;;5070890;28;20021;-53
2023/05/05 06:12:26;;;;;;;11.13;3.45;;;13.30;99.90;;;;;;5070918;28;20024;-47
2023/05/05 06:14:51;;;;;;;9.43;2.97;;;13.30;99.90;;;;;;5065190;28;20112;-48
2023/05/05 06:17:17;;;;;;;11.35;3.53;;;13.20;99.90;;;;;;5063601;28;20038;-50
2023/05/05 06:19:43;;;;;;;12.02;3.20;;;13.10;99.90;;;;;;5051061;28;20032;-45
2023/05/05 06:22:08;;;;;;;14.52;3.33;;;13.20;99.90;;;;;;5059466;28;20430;-51
2023/05/05 06:24:34;;;;;;;10.23;2.90;;;13.20;99.90;;;;;;5070671;28;20034;-46
2023/05/05 06:27:01;;;;;;;15.40;3.78;;;13.30;99.90;;;;;;5070627;28;20055;-51
2023/05/05 06:29:27;;;;;;;18.75;3.38;;;13.30;99.90;;;;;;5071004;28;20024;-49
2023/05/05 06:31:53;;;;;;;9.80;3.15;;;13.30;99.90;;;;;;5070858;28;20029;-45
2023/05/05 06:34:18;;;;;;;12.20;3.00;;;13.30;99.90;;;;;;5070837;28;20111;-47
2023/05/05 06:36:44;;;;;;;15.07;3.65;;;13.20;99.90;;;;;;5069427;28;20037;-47
2023/05/05 06:39:10;;;;;;;14.88;3.13;;;13.20;99.90;;;;;;5070828;28;20056;-48
2023/05/05 06:41:36;;;;;;;13.82;3.67;;;13.20;99.90;;;;;;5070683;28;20547;-48
2023/05/05 06:44:01;;;;;;;11.20;3.00;;;13.20;99.90;;;;;;5070489;28;20070;-52
2023/05/05 06:46:27;;;;;;;11.75;2.90;;;13.20;99.90;;;;;;5070445;28;20025;-48
2023/05/05 06:48:53;;;;;;;14.05;3.17;;;13.20;99.90;;;;;;5070685;28;20479;-54
2023/05/05 06:51:19;;;;;;;13.23;3.70;;;13.20;99.90;;;;;;5068944;28;20039;-49
2023/05/05 06:53:44;;;;;;;15.73;3.45;;;13.20;99.90;;;;;;5054283;28;20025;-45
2023/05/05 06:56:10;;;;;;;14.82;2.70;;;13.30;99.90;;;;;;5059616;28;20079;-43
2023/05/05 06:58:36;;;;;;;13.60;2.97;;;13.40;99.90;;;;;;5050862;28;20505;-44
2023/05/05 07:01:02;;;;;;;14.23;3.20;;;13.50;99.90;;;;;;5058377;28;20029;-52
2023/05/05 07:03:28;;;;;;;12.02;3.17;;;13.60;99.90;;;;;;5052671;28;20013;-54
2023/05/05 07:05:54;;;;;;;15.25;3.30;;;13.60;99.90;;;;;;5057283;28;20129;-52
2023/05/05 07:08:20;;;;;;;11.63;3.03;;;13.70;99.90;;;;;;5054452;28;20025;-47
2023/05/05 07:10:46;;;;;;;16.92;3.28;;;13.70;99.90;;;;;;5061913;28;20024;-48
2023/05/05 07:13:13;;;;;;;8.25;2.60;;;13.70;99.90;;;;;;5057006;28;20043;-45
2023/05/05 07:15:45;;;;;;;18.33;3.75;;;13.70;99.90;;;;;;5052510;28;20032;-53
2023/05/05 07:18:15;;;;;;;15.30;2.72;;;13.70;99.90;;;;;;5060658;28;20060;-51
2023/05/05 07:20:41;;;;;;;15.75;3.80;;;13.70;99.90;;;;;;5052984;28;20440;-56
2023/05/05 07:23:06;;;;;;;12.30;2.75;;;13.70;99.90;;;;;;5062084;28;20025;-47
2023/05/05 07:25:32;;;;;;;14.95;3.50;;;13.80;99.90;;;;;;5049911;28;20445;-50
2023/05/05 07:27:58;;;;;;;12.85;2.58;;;13.90;99.90;;;;;;5050085;28;20040;-51
2023/05/05 07:30:25;;;;;;;15.57;2.95;;;14.10;99.90;;;;;;5056392;28;20020;-47
2023/05/05 07:32:51;;;;;;;14.48;3.40;;;14.10;99.90;;;;;;5054339;28;20530;-47
2023/05/05 07:35:17;;;;;;;12.88;2.53;;;14.30;99.90;;;;;;5052444;28;20033;-47
2023/05/05 07:37:45;;;;;;;16.13;3.05;;;14.30;99.90;;;;;;5065411;28;20039;-47
2023/05/05 07:40:12;;;;;;;15.07;2.97;;;14.50;99.90;;;;;;5053730;28;20036;-50
2023/05/05 07:42:37;;;;;;;17.30;3.15;;;14.70;99.90;;;;;;5065869;28;20044;-46
2023/05/05 07:45:04;;;;;;;12.70;2.50;;;15.00;99.90;;;;;;5052574;28;20025;-47
2023/05/05 07:47:30;;;;;;;13.45;2.72;;;15.20;99.90;;;;;;5053394;28;20041;-48
2023/05/05 07:49:56;;;;;;;13.80;2.53;;;15.30;99.90;;;;;;5054433;28;20048;-49
2023/05/05 07:52:22;;;;;;;10.82;2.28;;;15.30;99.90;;;;;;5069512;28;20028;-51
2023/05/05 07:54:47;;;;;;;11.25;2.30;;;15.30;99.90;;;;;;5061705;28;20017;-54
2023/05/05 07:57:14;;;;;;;14.68;2.60;;;15.20;99.90;;;;;;5067250;28;20429;-49
2023/05/05 07:59:42;;;;;;;9.60;2.45;;;15.10;99.90;;;;;;5071962;28;20074;-53
2023/05/05 08:02:09;;;;;;;11.43;2.20;;;15.10;99.90;;;;;;5078477;28;20032;-47
2023/05/05 08:04:34;;;;;;;14.70;2.90;;;15.10;99.90;;;;;;5072884;28;20368;-49
2023/05/05 08:07:00;;;;;;;10.35;2.20;;;15.00;99.90;;;;;;5078213;28;20046;-50
2023/05/05 08:09:25;;;;;;;7.68;2.63;;;15.00;99.90;;;;;;5073903;28;20017;-48
2023/05/05 08:11:51;;;;;;;10.20;2.42;;;14.90;99.90;;;;;;5068861;28;20056;-44
2023/05/05 08:14:17;;;;;;;13.40;2.50;;;15.00;99.90;;;;;;5059758;28;20092;-54
2023/05/05 08:16:42;;;;;;;13.68;2.45;;;15.10;99.90;;;;;;5072184;28;20025;-47
2023/05/05 08:19:08;;;;;;;12.90;2.83;;;15.30;99.90;;;;;;5065738;28;20020;-54
2023/05/05 08:21:34;;;;;;;11.90;2.90;;;15.50;99.90;;;;;;5074832;28;20032;-46
2023/05/05 08:23:59;;;;;;;14.77;3.10;;;15.70;99.90;;;;;;5051255;28;20039;-46
2023/05/05 08:26:25;;;;;;;9.27;2.58;;;15.90;99.90;;;;;;5066417;28;20040;-46
2023/05/05 08:28:54;;;;;;;12.93;2.70;;;16.00;99.90;;;;;;5075713;28;20025;-47
2023/05/05 08:31:20;;;;;;;12.52;2.60;;;16.20;99.90;;;;;;5072992;28;20077;-47
2023/05/05 08:33:46;;;;;;;10.90;2.50;;;16.40;99.90;;;;;;5069520;28;20028;-47
2023/05/05 08:36:12;;;;;;;13.70;3.17;;;16.50;99.90;;;;;;5061593;28;20033;-46
2023/05/05 08:38:38;;;;;;;12.85;2.25;;;16.50;99.90;;;;;;5061822;28;20063;-48
2023/05/05 08:41:08;;;;;;;10.18;2.08;;;16.30;99.90;;;;;;5072707;28;20047;-50
2023/05/05 08:43:35;;;;;;;16.58;2.88;;;16.20;99.90;;;;;;5059242;28;20043;-43
2023/05/05 08:46:02;;;;;;;9.00;2.05;;;16.10;99.90;;;;;;5072232;28;20406;-45
2023/05/05 08:48:31;;;;;;;12.75;2.47;;;16.10;99.90;;;;;;5072768;28;20025;-44
2023/05/05 08:50:58;;;;;;;;;;;16.10;99.90;;;;;;5073285;28;20040;-45
2023/05/05 08:53:39;;;;;;;12.65;2.78;;;16.30;99.90;;;;;;5076130;28;19904;-50
2023/05/05 08:56:05;;;;;;;12.73;2.08;;;16.50;99.90;;;;;;5081089;28;20029;-44
2023/05/05 08:58:31;;;;;;;11.05;2.45;;;16.60;99.90;;;;;;5072875;28;20016;-44
2023/05/05 09:01:00;;;;;;;8.57;1.92;;;16.50;99.90;;;;;;5076283;28;20029;-44
2023/05/05 09:03:26;;;;;;;10.80;1.98;;;16.80;99.90;;;;;;5064183;28;20437;-45
2023/05/05 09:05:52;;;;;;;8.80;2.25;;;17.50;99.90;;;;;;5061808;28;20033;-45
2023/05/05 09:08:18;;;;;;;11.50;2.33;;;17.70;99.90;;;;;;5055598;28;20017;-44
2023/05/05 09:10:44;;;;;;;13.63;2.60;;;17.70;99.90;;;;;;5052336;28;20029;-45
2023/05/05 09:13:10;;;;;;;10.68;2.80;;;17.90;99.90;;;;;;5051084;28;20017;-49
2023/05/05 09:15:37;;;;;;;11.55;2.25;;;18.20;99.90;;;;;;5053023;28;20025;-44
2023/05/05 09:18:07;;;;;;;12.43;2.25;;;18.30;99.90;;;;;;5063574;28;20083;-44
2023/05/05 09:20:35;;;;;;;13.82;2.22;;;18.40;99.90;;;;;;5052338;28;20036;-46
2023/05/05 09:23:08;;;;;;;14.63;2.35;;;18.30;99.90;;;;;;5057515;28;20028;-47
2023/05/05 09:25:34;;;;;;;8.15;1.95;;;17.90;99.90;;;;;;5070342;28;20016;-43
2023/05/05 09:28:10;;;;;;;9.27;2.10;;;17.70;99.90;;;;;;5071278;28;20082;-45
2023/05/05 09:30:37;;;;;;;6.35;1.88;;;17.70;99.90;;;;;;5071799;28;20094;-44
2023/05/05 09:33:03;;;;;;;10.57;1.77;;;17.70;99.90;;;;;;5071340;28;20434;-44
2023/05/05 09:35:53;;;;;;;7.93;1.90;;;17.80;99.90;;;;;;5071244;28;20036;-49
2023/05/05 09:38:20;;;;;;;12.15;2.00;;;18.00;99.90;;;;;;5069883;28;20035;-51
2023/05/05 09:40:51;;;;;;;12.60;2.20;;;17.90;99.90;;;;;;5071708;28;20024;-46
2023/05/05 09:43:19;;;;;;;10.23;2.10;;;17.70;99.90;;;;;;5066730;28;20054;-47
2023/05/05 09:45:45;;;;;;;9.63;1.90;;;17.30;99.90;;;;;;5064058;28;20403;-45
2023/05/05 09:48:26;;;;;;;11.98;2.03;;;16.90;99.90;;;;;;5070094;28;20033;-49
2023/05/05 09:50:53;;;;;;;9.35;2.25;;;16.70;99.90;;;;;;5077744;28;20016;-53
2023/05/05 09:53:19;;;;;;;12.10;2.60;;;16.60;99.90;;;;;;5070513;28;20115;-48
2023/05/05 09:55:55;;;;;;;15.73;2.13;;;16.50;99.90;;;;;;5066775;28;20112;-46
2023/05/05 09:58:27;;;;;;;13.73;1.98;;;16.50;99.90;;;;;;5064729;28;20505;-47
2023/05/05 10:00:53;;;;;;;6.63;1.73;;;16.50;99.90;;;;;;5052374;28;20028;-48
2023/05/05 10:03:19;;;;;;;12.20;2.78;;;16.70;99.90;;;;;;5069076;28;20032;-42
2023/05/05 10:05:53;;;;;;;8.90;2.10;;;16.90;99.90;;;;;;5073230;28;20090;-43
2023/05/05 10:08:21;;;;;;;9.90;1.98;;;17.10;99.90;;;;;;5065992;28;20077;-44
2023/05/05 10:11:03;;;;;;;9.53;2.10;;;17.10;99.90;;;;;;5068009;28;20486;-44
2023/05/05 10:13:30;;;;;;;7.70;1.58;;;17.30;99.90;;;;;;5075861;28;20043;-45
2023/05/05 10:15:56;;;;;;;8.30;1.77;;;18.00;99.90;;;;;;5070100;28;20075;-48
2023/05/05 10:18:30;;;;;;;10.15;1.80;;;18.30;99.90;;;;;;5070551;28;20111;-50
2023/05/05 10:21:02;;;;;;;8.50;1.73;;;18.40;99.90;;;;;;5064167;28;20029;-47
2023/05/05 10:23:38;;;;;;;11.60;1.80;;;18.50;99.90;;;;;;5052559;28;20035;-45
2023/05/05 10:26:06;;;;;;;7.22;1.40;;;19.00;99.90;;;;;;5072458;28;20127;-47
2023/05/05 10:28:53;;;;;;;4.03;1.30;;;19.40;99.90;;;;;;5062342;28;20021;-48
2023/05/05 10:31:38;;;;;;;9.63;2.17;;;19.20;99.90;;;;;;5051240;28;20023;-48
2023/05/05 10:34:09;;;;;;;4.72;1.80;;;19.40;99.90;;;;;;5057007;28;20052;-45
2023/05/05 10:36:37;;;;;;;9.30;1.30;;;19.80;99.90;;;;;;5065176;28;20055;-46
2023/05/05 10:39:08;;;;;;;7.05;1.30;;;19.90;99.90;;;;;;5057080;28;20017;-45
2023/05/05 10:41:34;;;;;;;4.85;1.27;;;19.70;99.90;;;;;;5066883;28;20074;-45
2023/05/05 10:44:01;;;;;;;9.10;1.73;;;20.40;99.90;;;;;;5053523;28;20048;-49
2023/05/05 10:46:27;;;;;;;5.35;1.25;;;21.40;99.90;;;;;;5058399;28;20029;-48
2023/05/05 10:49:00;;;;;;;8.60;1.65;;;21.70;99.90;;;;;;5073094;28;20027;-48
2023/05/05 10:51:40;;;;;;;7.90;1.42;;;22.70;98.80;;;;;;5082537;28;20028;-46
2023/05/05 10:54:33;;;;;;;10.20;1.58;;;21.90;96.40;;;;;;5085322;28;20379;-47
2023/05/05 10:57:03;;;;;;;8.30;1.27;;;20.50;99.90;;;;;;5056231;28;20052;-50
2023/05/05 10:59:35;;;;;;;10.18;1.90;;;19.80;99.90;;;;;;5060331;28;20423;-46
2023/05/05 11:02:18;;;;;;;4.05;1.00;;;20.60;99.90;;;;;;5054291;28;20480;-49
2023/05/05 11:05:20;;;;;;;4.50;1.02;;;21.10;99.90;;;;;;5072788;28;20028;-50
2023/05/05 11:07:50;;;;;;;5.85;1.33;;;21.40;99.90;;;;;;5060426;28;20044;-45
2023/05/05 11:10:22;;;;;;;5.93;1.40;;;21.20;99.90;;;;;;5058392;28;20020;-46
2023/05/05 11:12:50;;;;;;;7.70;1.35;;;21.20;99.90;;;;;;5052726;28;20041;-46
2023/05/05 11:15:28;;;;;;;5.45;1.23;;;21.70;99.90;;;;;;5054242;28;20025;-45
2023/05/05 11:17:55;;;;;;;3.63;1.13;;;21.90;99.70;;;;;;5054226;28;20021;-45
2023/05/05 11:20:38;;;;;;;10.05;1.73;;;21.80;99.90;;;;;;5054156;28;20079;-50
2023/05/05 11:23:04;;;;;;;10.45;1.60;;;21.60;99.20;;;;;;5060938;28;20049;-49
2023/05/05 11:25:35;;;;;;;5.38;1.05;;;21.60;99.90;;;;;;5070880;28;20420;-49
2023/05/05 11:28:15;;;;;;;6.20;1.60;;;22.20;99.90;;;;;;5064269;28;20131;-54
2023/05/05 11:30:57;;;;;;;5.30;1.13;;;22.50;99.90;;;;;;5064513;28;20371;-46
2023/05/05 11:33:25;;;;;;;5.80;1.25;;;23.30;93.90;;;;;;5067266;28;20056;-54
2023/05/05 11:36:07;;;;;;;7.53;1.40;;;22.80;94.40;;;;;;5071007;28;20021;-50
2023/05/05 11:39:05;;;;;;;6.63;1.38;;;22.80;98.50;;;;;;5069260;28;20024;-46
2023/05/05 11:41:31;;;;;;;8.25;1.63;;;22.70;95.00;;;;;;5070244;28;20031;-48
2023/05/05 11:44:16;;;;;;;4.60;1.10;;;22.30;97.00;;;;;;5075490;28;20431;-53
2023/05/05 11:46:50;;;;;;;8.65;1.30;;;22.00;96.40;;;;;;5071089;28;20037;-41
2023/05/05 11:49:35;;;;;;;7.55;1.20;;;22.40;96.20;;;;;;5076403;28;20114;-44
2023/05/05 11:52:01;;;;;;;7.28;1.30;;;22.70;94.10;;;;;;5083124;28;20024;-45
2023/05/05 11:54:27;;;;;;;7.13;1.13;;;22.40;92.80;;;;;;5062870;28;20053;-46
2023/05/05 11:56:54;;;;;;;7.10;1.02;;;21.80;95.90;;;;;;5077112;28;20064;-44
2023/05/05 11:59:21;;;;;;;8.88;1.40;;;21.50;98.10;;;;;;5075003;28;20400;-55
2023/05/05 12:01:47;;;;;;;7.82;1.48;;;21.70;96.20;;;;;;5071315;28;20036;-45
2023/05/05 12:04:16;;;;;;;9.35;1.45;;;21.20;97.30;;;;;;5071302;28;20482;-50
2023/05/05 12:06:43;;;;;;;7.70;1.30;;;21.10;99.90;;;;;;5060451;28;20319;-47
2023/05/05 12:09:20;;;;;;;6.20;1.25;;;20.70;99.90;;;;;;5079447;28;20107;-44
2023/05/05 12:11:56;;;;;;;8.13;1.15;;;20.80;99.90;;;;;;5068672;28;20397;-45
2023/05/05 12:14:23;;;;;;;5.90;1.40;;;20.80;99.90;;;;;;5063053;28;20021;-46
2023/05/05 12:17:07;;;;;;;8.07;1.48;;;21.00;98.80;;;;;;5061439;28;20039;-54
2023/05/05 12:19:34;;;;;;;7.32;1.35;;;21.00;99.90;;;;;;5060798;28;20106;-52
2023/05/05 12:22:01;;;;;;;7.97;1.42;;;20.70;99.90;;;;;;5074153;28;20072;-58
2023/05/05 12:24:29;;;;;;;6.35;1.38;;;20.60;99.90;;;;;;5066322;28;20017;-53
2023/05/05 12:26:54;;;;;;;9.20;1.58;;;21.00;99.90;;;;;;5069373;28;20048;-50
2023/05/05 12:29:27;;;;;;;9.32;1.55;;;21.60;99.90;;;;;;5073174;28;20040;-55
2023/05/05 12:31:53;;;;;;;7.25;1.48;;;21.70;96.70;;;;;;5077284;28;20024;-55
2023/05/05 12:34:20;;;;;;;6.25;1.35;;;21.90;96.50;;;;;;5077799;28;20103;-49
2023/05/05 12:36:46;;;;;;;7.70;1.60;;;22.10;97.00;;;;;;5070777;28;20024;-50
2023/05/05 12:39:12;;;;;;;6.95;1.80;;;22.80;95.20;;;;;;5072075;28;20115;-49
2023/05/05 12:41:38;;;;;;;9.30;1.70;;;22.90;95.80;;;;;;5070329;28;20029;-51
2023/05/05 12:44:04;;;;;;;8.45;1.50;;;22.30;96.30;;;;;;5067888;28;20063;-46
2023/05/05 12:46:30;;;;;;;8.10;1.88;;;22.00;99.80;;;;;;5071076;28;20032;-46
2023/05/05 12:49:06;;;;;;;10.77;1.95;;;22.40;99.70;;;;;;5071106;28;20107;-46